sensor_id;sensor_type;location;lat;lon;timestamp;pressure;altitude;pressure_sealevel;temperature;humidity
45939;BME280;31650;48.818;9.116;2023-05-23T00:02:17;97785.78;;;16.61;100.00
45939;BME280;31650;48.818;9.116;2023-05-23T00:17:18;97798.91;;;16.54;100.00
45939;BME280;31650;48.818;9.116;2023-05-23T00:32:18;97794.88;;;16.29;100.00
45939;BME280;31650;48.818;9.116;2023-05-23T00:47:18;97805.91;;;16.72;100.00
45939;BME280;31650;48.818;9.116;2023-05-23T01:02:19;97818.13;;;16.91;100.00
45939;BME280;31650;48.818;9.116;2023-05-23T01:17:23;97816.41;;;16.80;100.00
45939;BME280;31650;48.818;9.116;2023-05-23T01:32:26;97828.44;;;16.42;100.00
45939;BME280;31650;48.818;9.116;2023-05-23T01:47:27;97823.00;;;16.47;100.00
45939;BME280;31650;48.818;9.116;2023-05-23T02:02:28;97833.19;;;16.19;100.00
45939;BME280;31650;48.818;9.116;2023-05-23T02:17:28;97832.94;;;16.26;100.00
45939;BME280;31650;48.818;9.116;2023-05-23T02:32:29;97836.25;;;16.28;100.00
45939;BME280;31650;48.818;9.116;2023-05-23T02:47:29;97846.22;;;16.34;100.00
45939;BME280;31650;48.818;9.116;2023-05-23T03:02:30;97851.13;;;16.32;100.00
45939;BME280;31650;48.818;9.116;2023-05-23T03:17:30;97859.72;;;16.40;100.00
45939;BME280;31650;48.818;9.116;2023-05-23T03:32:30;97862.97;;;16.37;100.00
45939;BME280;31650;48.818;9.116;2023-05-23T03:47:30;97870.31;;;16.32;100.00
45939;BME280;31650;48.818;9.116;2023-05-23T04:02:31;97871.41;;;16.31;100.00
45939;BME280;31650;48.818;9.116;2023-05-23T04:17:32;97872.44;;;16.25;100.00
45939;BME280;31650;48.818;9.116;2023-05-23T04:32:32;97881.88;;;16.34;100.00
45939;BME280;31650;48.818;9.116;2023-05-23T04:47:32;97898.91;;;16.36;100.00
45939;BME280;31650;48.818;9.116;2023-05-23T05:02:33;97898.50;;;16.54;100.00
45939;BME280;31650;48.818;9.116;2023-05-23T05:17:34;97910.09;;;16.61;100.00
45939;BME280;31650;48.818;9.116;2023-05-23T05:32:35;97923.56;;;16.63;100.00
45939;BME280;31650;48.818;9.116;2023-05-23T05:47:39;97907.22;;;17.06;100.00
45939;BME280;31650;48.818;9.116;2023-05-23T06:02:48;97920.31;;;17.36;100.00
45939;BME280;31650;48.818;9.116;2023-05-23T06:17:56;97914.16;;;17.66;100.00
45939;BME280;31650;48.818;9.116;2023-05-23T06:32:57;97931.38;;;17.09;100.00
45939;BME280;31650;48.818;9.116;2023-05-23T06:48:01;97957.06;;;16.65;100.00
45939;BME280;31650;48.818;9.116;2023-05-23T07:03:01;97976.19;;;16.55;100.00
45939;BME280;31650;48.818;9.116;2023-05-23T07:18:02;97992.44;;;16.12;100.00
45939;BME280;31650;48.818;9.116;2023-05-23T07:33:03;97993.66;;;16.22;100.00
45939;BME280;31650;48.818;9.116;2023-05-23T07:48:04;97988.94;;;15.95;100.00
45939;BME280;31650;48.818;9.116;2023-05-23T08:03:05;97995.41;;;16.33;100.00
45939;BME280;31650;48.818;9.116;2023-05-23T08:18:17;98012.78;;;16.16;100.00
45939;BME280;31650;48.818;9.116;2023-05-23T08:33:34;98019.91;;;16.17;100.00
45939;BME280;31650;48.818;9.116;2023-05-23T08:48:37;98032.81;;;16.17;100.00
45939;BME280;31650;48.818;9.116;2023-05-23T09:03:54;98046.97;;;16.31;100.00
45939;BME280;31650;48.818;9.116;2023-05-23T09:19:10;98053.75;;;16.45;99.45
45939;BME280;31650;48.818;9.116;2023-05-23T09:34:11;98045.50;;;16.94;89.63
45939;BME280;31650;48.818;9.116;2023-05-23T09:49:14;98049.88;;;17.55;82.84
45939;BME280;31650;48.818;9.116;2023-05-23T10:04:17;98038.13;;;18.02;75.65
45939;BME280;31650;48.818;9.116;2023-05-23T10:49:44;98031.84;;;19.77;65.63
45939;BME280;31650;48.818;9.116;2023-05-23T11:04:44;98045.34;;;19.99;60.55
45939;BME280;31650;48.818;9.116;2023-05-23T11:19:55;98036.41;;;20.93;59.94
45939;BME280;31650;48.818;9.116;2023-05-23T11:34:58;98055.56;;;19.57;62.65
45939;BME280;31650;48.818;9.116;2023-05-23T11:49:59;98043.47;;;21.09;58.58
45939;BME280;31650;48.818;9.116;2023-05-23T12:05:05;98048.28;;;20.33;60.57
45939;BME280;31650;48.818;9.116;2023-05-23T12:20:05;98028.50;;;21.55;56.51
45939;BME280;31650;48.818;9.116;2023-05-23T12:35:07;98029.50;;;20.95;58.84
45939;BME280;31650;48.818;9.116;2023-05-23T12:50:08;98009.66;;;21.86;56.89
45939;BME280;31650;48.818;9.116;2023-05-23T13:05:08;97996.78;;;23.24;53.15
45939;BME280;31650;48.818;9.116;2023-05-23T13:20:09;97987.94;;;23.69;52.36
45939;BME280;31650;48.818;9.116;2023-05-23T13:35:09;98016.13;;;21.47;57.71
45939;BME280;31650;48.818;9.116;2023-05-23T13:50:10;98028.50;;;20.00;62.36
45939;BME280;31650;48.818;9.116;2023-05-23T14:36:31;97991.03;;;24.28;51.33
45939;BME280;31650;48.818;9.116;2023-05-23T14:51:32;97992.16;;;21.32;56.53
45939;BME280;31650;48.818;9.116;2023-05-23T15:06:32;97997.63;;;22.25;53.97
45939;BME280;31650;48.818;9.116;2023-05-23T15:21:33;97983.91;;;22.76;51.92
45939;BME280;31650;48.818;9.116;2023-05-23T15:36:33;97995.66;;;23.25;52.30
45939;BME280;31650;48.818;9.116;2023-05-23T15:51:34;97990.88;;;22.93;52.12
45939;BME280;31650;48.818;9.116;2023-05-23T16:06:35;97995.94;;;20.68;58.97
45939;BME280;31650;48.818;9.116;2023-05-23T16:21:35;97989.63;;;21.70;55.90
45939;BME280;31650;48.818;9.116;2023-05-23T16:36:36;97984.50;;;21.24;57.40
45939;BME280;31650;48.818;9.116;2023-05-23T16:51:36;97991.63;;;18.89;64.98
45939;BME280;31650;48.818;9.116;2023-05-23T17:06:36;98001.13;;;18.35;67.39
45939;BME280;31650;48.818;9.116;2023-05-23T17:21:37;97993.00;;;19.48;63.19
45939;BME280;31650;48.818;9.116;2023-05-23T17:36:37;98001.56;;;19.26;63.21
45939;BME280;31650;48.818;9.116;2023-05-23T17:51:37;98019.06;;;18.63;65.94
45939;BME280;31650;48.818;9.116;2023-05-23T18:06:38;98025.13;;;17.55;71.06
45939;BME280;31650;48.818;9.116;2023-05-23T18:21:38;98050.31;;;16.82;75.28
45939;BME280;31650;48.818;9.116;2023-05-23T18:36:38;98055.19;;;16.53;77.92
45939;BME280;31650;48.818;9.116;2023-05-23T18:51:38;98077.25;;;15.80;85.48
45939;BME280;31650;48.818;9.116;2023-05-23T19:06:43;98094.94;;;15.55;91.48
45939;BME280;31650;48.818;9.116;2023-05-23T19:22:30;98127.66;;;15.45;95.81
45939;BME280;31650;48.818;9.116;2023-05-23T19:37:31;98147.41;;;15.47;95.67
45939;BME280;31650;48.818;9.116;2023-05-23T19:52:31;98177.91;;;15.22;96.97
45939;BME280;31650;48.818;9.116;2023-05-23T20:07:32;98175.16;;;15.22;85.75
45939;BME280;31650;48.818;9.116;2023-05-23T20:22:32;98198.25;;;14.98;89.82
45939;BME280;31650;48.818;9.116;2023-05-23T20:37:32;98202.72;;;14.75;90.55
45939;BME280;31650;48.818;9.116;2023-05-23T20:52:33;98225.94;;;14.61;90.72
45939;BME280;31650;48.818;9.116;2023-05-23T21:07:35;98239.72;;;14.42;89.90
45939;BME280;31650;48.818;9.116;2023-05-23T21:22:36;98253.03;;;14.27;90.73
45939;BME280;31650;48.818;9.116;2023-05-23T21:37:36;98254.09;;;14.02;89.12
45939;BME280;31650;48.818;9.116;2023-05-23T21:52:37;98248.97;;;13.94;91.72
45939;BME280;31650;48.818;9.116;2023-05-23T22:07:37;98241.72;;;13.46;100.00
45939;BME280;31650;48.818;9.116;2023-05-23T22:22:37;98276.72;;;12.64;100.00
45939;BME280;31650;48.818;9.116;2023-05-23T22:37:38;98283.22;;;12.19;100.00
45939;BME280;31650;48.818;9.116;2023-05-23T22:52:38;98281.78;;;11.85;100.00
45939;BME280;31650;48.818;9.116;2023-05-23T23:07:39;98279.69;;;11.55;100.00
45939;BME280;31650;48.818;9.116;2023-05-23T23:22:39;98277.44;;;11.45;100.00
45939;BME280;31650;48.818;9.116;2023-05-23T23:37:40;98277.94;;;11.67;100.00
45939;BME280;31650;48.818;9.116;2023-05-23T23:52:40;98268.50;;;11.70;100.00
